createdAt,value
2023-03-15T00:01:46.845Z,4.93
2023-03-15T00:04:15.363Z,4.91
2023-03-15T00:06:45.073Z,4.86
2023-03-15T00:09:13.568Z,4.84
2023-03-15T00:11:45.724Z,4.80
2023-03-15T00:14:14.308Z,4.77
2023-03-15T00:16:43.404Z,4.75
2023-03-15T00:19:12.097Z,4.71
2023-03-15T00:21:43.545Z,4.69
2023-03-15T00:24:11.818Z,4.68
2023-03-15T00:26:41.123Z,4.66
2023-03-15T00:29:10.122Z,4.63
2023-03-15T00:31:39.833Z,4.59
2023-03-15T00:34:08.205Z,4.56
2023-03-15T00:36:36.692Z,4.53
2023-03-15T00:39:05.994Z,4.50
2023-03-15T00:41:34.886Z,4.49
2023-03-15T00:44:06.239Z,4.47
2023-03-15T00:46:35.287Z,4.43
2023-03-15T00:49:03.918Z,4.40
2023-03-15T00:51:37.725Z,4.36
2023-03-15T00:54:06.105Z,4.32
2023-03-15T00:56:37.660Z,4.27
2023-03-15T00:59:08.102Z,4.23
2023-03-15T01:01:36.590Z,4.18
2023-03-15T01:04:06.743Z,4.23
2023-03-15T01:06:35.077Z,4.28
2023-03-15T01:09:04.240Z,4.28
2023-03-15T01:11:33.676Z,4.28
2023-03-15T01:14:03.902Z,4.21
2023-03-15T01:16:34.535Z,4.15
2023-03-15T01:19:03.426Z,4.14
2023-03-15T01:21:32.011Z,4.12
2023-03-15T01:24:00.904Z,4.10
2023-03-15T01:26:29.693Z,4.07
2023-03-15T01:28:58.483Z,4.03
2023-03-15T01:31:29.233Z,4.02
2023-03-15T01:33:58.477Z,3.99
2023-03-15T01:36:29.360Z,4.02
2023-03-15T01:38:58.249Z,4.05
2023-03-15T01:41:33.294Z,4.02
2023-03-15T01:44:01.568Z,4.03
2023-03-15T01:46:34.803Z,4.01
2023-03-15T01:49:25.999Z,4.00
2023-03-15T01:52:18.317Z,3.96
2023-03-15T01:55:15.864Z,3.94
2023-03-15T01:57:57.682Z,3.88
2023-03-15T02:00:28.023Z,3.94
2023-03-15T02:03:09.187Z,3.98
2023-03-15T02:05:46.373Z,3.99
2023-03-15T02:08:20.591Z,3.97
2023-03-15T02:10:52.198Z,3.96
2023-03-15T02:13:22.987Z,3.93
2023-03-15T02:15:53.767Z,3.91
2023-03-15T02:18:37.153Z,3.89
2023-03-15T02:21:14.961Z,3.94
2023-03-15T02:23:44.664Z,4.02
2023-03-15T02:26:48.894Z,4.05
2023-03-15T02:29:17.986Z,4.08
2023-03-15T02:31:46.508Z,4.09
2023-03-15T02:34:15.360Z,4.10
2023-03-15T02:36:43.944Z,4.09
2023-03-15T02:39:16.891Z,4.05
2023-03-15T02:41:54.388Z,4.00
2023-03-15T02:44:36.021Z,3.95
2023-03-15T02:47:07.783Z,3.99
2023-03-15T02:49:39.557Z,4.04
2023-03-15T02:52:09.978Z,4.06
2023-03-15T02:54:39.583Z,4.07
2023-03-15T02:57:13.397Z,4.09
2023-03-15T02:59:43.219Z,4.08
2023-03-15T03:02:13.855Z,4.06
2023-03-15T03:04:45.903Z,4.02
2023-03-15T03:07:14.385Z,3.99
2023-03-15T03:09:51.677Z,3.94
2023-03-15T03:12:20.877Z,3.89
2023-03-15T03:14:53.352Z,3.90
2023-03-15T03:17:25.115Z,3.95
2023-03-15T03:19:53.798Z,3.92
2023-03-15T03:22:27.298Z,3.89
2023-03-15T03:24:56.451Z,3.85
2023-03-15T03:27:25.591Z,3.79
2023-03-15T03:29:54.491Z,3.74
2023-03-15T03:32:22.909Z,3.68
2023-03-15T03:34:55.752Z,3.62
2023-03-15T03:37:24.644Z,3.62
2023-03-15T03:40:08.586Z,3.68
2023-03-15T03:42:37.479Z,3.67
2023-03-15T03:45:07.373Z,3.66
2023-03-15T03:47:39.362Z,3.64
2023-03-15T03:50:08.804Z,3.62
2023-03-15T03:52:37.875Z,3.58
2023-03-15T03:55:10.405Z,3.51
2023-03-15T03:57:38.927Z,3.45
2023-03-15T04:00:10.337Z,3.47
2023-03-15T04:04:35.263Z,3.48
2023-03-15T04:07:04.390Z,3.43
2023-03-15T04:09:38.720Z,3.40
2023-03-15T04:12:10.613Z,3.36
2023-03-15T04:14:42.740Z,3.32
2023-03-15T04:17:12.865Z,3.31
2023-03-15T04:19:47.125Z,3.36
2023-03-15T04:22:19.358Z,3.44
2023-03-15T04:25:09.645Z,3.48
2023-03-15T04:28:04.860Z,3.43
2023-03-15T04:30:59.265Z,3.39
2023-03-15T04:33:41.150Z,3.37
2023-03-15T04:36:27.360Z,3.35
2023-03-15T04:39:15.294Z,3.32
2023-03-15T04:41:50.710Z,3.37
2023-03-15T04:44:45.439Z,3.48
2023-03-15T04:47:24.877Z,3.50
2023-03-15T04:50:07.354Z,3.54
2023-03-15T04:52:49.800Z,3.55
2023-03-15T04:55:47.673Z,3.51
2023-03-15T04:58:38.898Z,3.48
2023-03-15T05:01:30.737Z,3.53
2023-03-15T05:04:20.125Z,3.62
2023-03-15T05:07:04.969Z,3.66
2023-03-15T05:09:52.080Z,3.67
2023-03-15T05:12:40.428Z,3.66
2023-03-15T05:15:47.415Z,3.67
2023-03-15T05:18:35.971Z,3.66
2023-03-15T05:21:28.663Z,3.67
2023-03-15T05:24:20.149Z,3.76
2023-03-15T05:26:55.798Z,3.81
2023-03-15T05:29:57.351Z,3.85
2023-03-15T05:32:45.095Z,3.84
2023-03-15T05:35:32.747Z,3.85
2023-03-15T05:38:33.560Z,3.87
2023-03-15T05:41:24.084Z,3.85
2023-03-15T05:44:23.366Z,3.96
2023-03-15T05:47:10.696Z,4.06
2023-03-15T05:49:50.950Z,4.15
2023-03-15T05:52:37.354Z,4.24
2023-03-15T05:55:24.884Z,4.26
2023-03-15T05:58:13.028Z,4.25
2023-03-15T06:01:04.759Z,4.28
2023-03-15T06:03:47.134Z,4.41
2023-03-15T06:06:19.751Z,4.53
2023-03-15T06:08:48.130Z,4.63
2023-03-15T06:11:18.347Z,4.70
2023-03-15T06:13:47.345Z,4.76
2023-03-15T06:16:35.021Z,4.85
2023-03-15T06:19:04.790Z,4.90
2023-03-15T06:21:33.579Z,4.92
2023-03-15T06:24:06.787Z,4.95
2023-03-15T06:26:36.177Z,4.98
2023-03-15T06:29:05.072Z,5.08
2023-03-15T06:31:34.276Z,5.23
2023-03-15T06:34:05.210Z,5.37
2023-03-15T06:36:37.178Z,5.43
2023-03-15T06:39:08.427Z,5.44
2023-03-15T06:41:37.011Z,5.51
2023-03-15T06:44:10.102Z,5.67
2023-03-15T06:46:40.941Z,5.79
2023-03-15T06:49:12.803Z,5.85
2023-03-15T06:51:45.384Z,5.95
2023-03-15T06:54:13.763Z,6.01
2023-03-15T06:56:42.555Z,6.02
2023-03-15T06:59:12.673Z,6.10
2023-03-15T07:01:42.450Z,6.20
2023-03-15T07:04:11.279Z,6.25
2023-03-15T07:06:40.794Z,6.27
2023-03-15T07:09:09.179Z,6.28
2023-03-15T07:11:37.860Z,6.27
2023-03-15T07:14:06.442Z,6.26
2023-03-15T07:16:35.235Z,6.26
2023-03-15T07:19:04.134Z,6.31
2023-03-15T07:21:33.732Z,6.38
2023-03-15T07:24:02.316Z,6.53
2023-03-15T07:26:30.800Z,6.65
2023-03-15T07:28:59.898Z,6.73
2023-03-15T07:31:28.490Z,6.82
2023-03-15T07:33:57.684Z,6.91
2023-03-15T07:36:26.677Z,7.04
2023-03-15T07:38:55.464Z,7.19
2023-03-15T07:41:26.300Z,7.36
2023-03-15T07:44:09.835Z,7.54
2023-03-15T07:46:38.776Z,7.66
2023-03-15T07:49:07.634Z,7.77
2023-03-15T07:51:36.226Z,7.89
2023-03-15T07:54:11.541Z,8.06
2023-03-15T07:56:40.839Z,8.22
2023-03-15T07:59:10.286Z,8.39
2023-03-15T08:01:39.068Z,8.60
2023-03-15T08:04:07.723Z,8.78
2023-03-15T08:06:37.036Z,8.94
2023-03-15T08:09:06.947Z,9.12
2023-03-15T08:14:10.660Z,9.40
2023-03-15T08:16:39.614Z,9.47
2023-03-15T08:19:09.674Z,9.61
2023-03-15T08:21:39.183Z,9.67
2023-03-15T08:24:08.380Z,9.78
2023-03-15T08:26:38.311Z,9.95
2023-03-15T08:29:06.682Z,10.15
2023-03-15T08:31:35.284Z,10.35
2023-03-15T08:34:04.377Z,10.49
2023-03-15T08:36:40.350Z,10.60
2023-03-15T08:39:08.805Z,10.67
2023-03-15T08:41:37.902Z,10.77
2023-03-15T08:44:11.707Z,10.89
2023-03-15T08:46:40.899Z,10.99
2023-03-15T08:49:09.496Z,11.11
2023-03-15T08:51:39.005Z,11.27
2023-03-15T08:54:07.790Z,11.42
2023-03-15T08:56:42.630Z,11.58
2023-03-15T08:59:12.811Z,11.77
2023-03-15T09:01:45.043Z,11.95
2023-03-15T09:04:14.804Z,12.25
2023-03-15T09:06:44.331Z,12.57
2023-03-15T09:09:17.742Z,12.84
2023-03-15T09:11:46.327Z,13.01
2023-03-15T09:14:14.795Z,13.19
2023-03-15T09:16:43.447Z,13.36
2023-03-15T09:19:12.168Z,13.49
2023-03-15T09:21:41.456Z,13.64
2023-03-15T09:24:12.106Z,13.85
2023-03-15T09:26:42.533Z,14.05
2023-03-15T09:29:12.661Z,14.23
2023-03-15T09:31:42.060Z,14.56
2023-03-15T09:34:10.747Z,14.92
2023-03-15T09:36:39.344Z,15.20
2023-03-15T09:39:08.739Z,15.48
2023-03-15T09:41:45.230Z,15.64
2023-03-15T09:44:21.380Z,15.57
2023-03-15T09:46:53.183Z,15.53
2023-03-15T09:49:59.606Z,15.64
2023-03-15T09:52:51.029Z,15.81
2023-03-15T09:55:22.167Z,15.90
2023-03-15T09:57:58.303Z,15.90
2023-03-15T10:00:45.861Z,15.97
2023-03-15T10:03:40.039Z,16.11
2023-03-15T10:06:23.084Z,16.11
2023-03-15T10:08:57.491Z,15.98
2023-03-15T10:12:04.825Z,15.97
2023-03-15T10:14:40.040Z,16.15
2023-03-15T10:17:12.490Z,16.23
2023-03-15T10:19:52.246Z,16.35
2023-03-15T10:22:31.891Z,16.35
2023-03-15T10:25:11.746Z,16.45
2023-03-15T10:27:43.889Z,16.61
2023-03-15T10:30:26.318Z,16.87
2023-03-15T10:33:23.395Z,17.22
2023-03-15T10:35:56.120Z,17.36
2023-03-15T10:38:27.914Z,17.39
2023-03-15T10:40:59.538Z,17.52
2023-03-15T10:43:37.399Z,17.73
2023-03-15T10:46:14.275Z,17.91
2023-03-15T10:48:53.941Z,18.06
2023-03-15T10:51:24.840Z,18.43
2023-03-15T10:54:07.731Z,18.65
2023-03-15T10:56:49.155Z,18.89
2023-03-15T10:59:18.346Z,18.99
2023-03-15T11:01:48.463Z,18.95
2023-03-15T11:04:24.362Z,18.86
2023-03-15T11:06:58.545Z,18.71
2023-03-15T11:09:27.337Z,18.64
2023-03-15T11:12:04.113Z,18.72
2023-03-15T11:14:37.306Z,18.76
2023-03-15T11:17:07.848Z,18.71
2023-03-15T11:19:39.701Z,18.51
2023-03-15T11:22:13.314Z,18.38
2023-03-15T11:24:42.051Z,18.37
2023-03-15T11:27:12.629Z,18.25
2023-03-15T11:29:52.172Z,18.14
2023-03-15T11:32:23.180Z,18.22
2023-03-15T11:35:08.615Z,18.26
2023-03-15T11:37:47.321Z,18.30
2023-03-15T11:40:22.790Z,18.46
2023-03-15T11:42:55.962Z,18.67
2023-03-15T11:45:37.276Z,18.82
2023-03-15T11:48:41.077Z,18.78
2023-03-15T11:51:11.596Z,18.58
2023-03-15T11:54:04.547Z,18.35
2023-03-15T11:56:45.012Z,18.09
2023-03-15T11:59:25.701Z,17.63
2023-03-15T12:02:01.744Z,17.14
2023-03-15T12:04:33.504Z,16.75
2023-03-15T12:07:07.005Z,16.72
2023-03-15T12:09:38.659Z,16.95
2023-03-15T12:12:24.921Z,17.18
2023-03-15T12:15:19.197Z,17.34
2023-03-15T12:17:47.839Z,17.54
2023-03-15T12:20:18.477Z,17.62
2023-03-15T12:23:18.191Z,17.56
2023-03-15T12:26:05.822Z,17.32
2023-03-15T12:28:50.807Z,17.08
2023-03-15T12:31:19.228Z,16.84
2023-03-15T12:33:50.106Z,16.54
2023-03-15T12:36:36.320Z,16.25
2023-03-15T12:39:14.209Z,16.02
2023-03-15T12:41:50.282Z,15.85
2023-03-15T12:44:19.166Z,15.76
2023-03-15T12:46:47.549Z,15.76
2023-03-15T12:49:18.899Z,15.81
2023-03-15T12:52:04.923Z,15.88
2023-03-15T12:54:39.659Z,15.97
2023-03-15T12:57:13.632Z,16.08
2023-03-15T12:59:55.696Z,16.35
2023-03-15T13:02:49.796Z,16.74
2023-03-15T13:05:25.378Z,17.39
2023-03-15T13:07:57.542Z,17.93
2023-03-15T13:10:59.923Z,18.29
2023-03-15T13:13:28.305Z,18.39
2023-03-15T13:16:38.590Z,18.35
2023-03-15T13:19:24.223Z,18.30
2023-03-15T13:22:22.538Z,18.30
2023-03-15T13:25:10.067Z,18.63
2023-03-15T13:27:44.455Z,18.87
2023-03-15T13:30:52.765Z,19.13
2023-03-15T13:33:22.213Z,19.57
2023-03-15T13:35:55.698Z,19.91
2023-03-15T13:38:31.086Z,20.12
2023-03-15T13:41:02.209Z,20.38
2023-03-15T13:43:36.439Z,20.77
2023-03-15T13:46:09.658Z,21.11
2023-03-15T13:48:41.689Z,21.33
2023-03-15T13:51:29.323Z,21.49
2023-03-15T13:54:02.117Z,21.56
2023-03-15T13:56:49.174Z,21.67
2023-03-15T13:59:18.233Z,21.78
2023-03-15T14:01:46.790Z,21.80
2023-03-15T14:04:17.566Z,21.94
2023-03-15T14:06:48.692Z,22.03
2023-03-15T14:09:24.449Z,22.11
2023-03-15T14:12:05.653Z,22.28
2023-03-15T14:14:39.179Z,22.51
2023-03-15T14:17:18.169Z,22.76
2023-03-15T14:19:53.574Z,23.03
2023-03-15T14:22:22.219Z,23.16
2023-03-15T14:24:57.645Z,23.16
2023-03-15T14:27:27.250Z,22.90
2023-03-15T14:30:00.438Z,22.27
2023-03-15T14:32:34.924Z,21.46
2023-03-15T14:35:30.393Z,20.79
2023-03-15T14:38:08.824Z,20.25
2023-03-15T14:40:38.834Z,19.81
2023-03-15T14:43:07.616Z,19.49
2023-03-15T14:45:37.935Z,19.28
2023-03-15T14:48:11.150Z,19.34
2023-03-15T14:50:41.763Z,19.63
2023-03-15T14:53:14.863Z,19.97
2023-03-15T14:55:49.282Z,20.18
2023-03-15T14:58:21.675Z,20.05
2023-03-15T15:00:54.253Z,19.62
2023-03-15T15:03:30.502Z,19.15
2023-03-15T15:05:59.676Z,18.69
2023-03-15T15:08:28.287Z,18.31
2023-03-15T15:10:57.181Z,18.08
2023-03-15T15:13:29.663Z,17.92
2023-03-15T15:15:58.563Z,17.72
2023-03-15T15:18:31.315Z,17.39
2023-03-15T15:21:11.185Z,17.02
2023-03-15T15:23:57.023Z,16.61
2023-03-15T15:26:28.834Z,16.17
2023-03-15T15:28:58.055Z,15.83
2023-03-15T15:31:27.447Z,15.49
2023-03-15T15:34:04.127Z,15.12
2023-03-15T15:36:38.544Z,14.77
2023-03-15T15:39:29.987Z,14.44
2023-03-15T15:41:58.343Z,14.14
2023-03-15T15:44:27.250Z,13.93
2023-03-15T15:46:56.335Z,13.74
2023-03-15T15:49:24.928Z,13.53
2023-03-15T15:51:54.530Z,13.32
2023-03-15T15:54:26.193Z,13.14
2023-03-15T15:56:56.832Z,12.96
2023-03-15T15:59:26.078Z,12.80
2023-03-15T16:02:02.955Z,12.64
2023-03-15T16:04:33.229Z,12.49
2023-03-15T16:07:02.684Z,12.38
2023-03-15T16:09:32.230Z,12.29
2023-03-15T16:12:03.191Z,12.19
2023-03-15T16:14:34.027Z,12.10
2023-03-15T16:17:10.290Z,11.99
2023-03-15T16:22:17.702Z,11.77
2023-03-15T16:24:53.776Z,11.67
2023-03-15T16:27:23.594Z,11.54
2023-03-15T16:29:53.496Z,11.41
2023-03-15T16:32:36.870Z,11.23
2023-03-15T16:35:18.122Z,11.00
2023-03-15T16:37:47.726Z,10.79
2023-03-15T16:40:22.356Z,10.61
2023-03-15T16:42:53.400Z,10.43
2023-03-15T16:45:22.602Z,10.26
2023-03-15T16:47:56.809Z,10.12
2023-03-15T16:50:26.229Z,9.96
2023-03-15T16:52:55.893Z,9.84
2023-03-15T16:55:26.058Z,9.80
2023-03-15T16:57:56.080Z,9.72
2023-03-15T17:00:25.914Z,9.61
2023-03-15T17:02:55.127Z,9.53
2023-03-15T17:05:32.442Z,9.45
2023-03-15T17:08:01.173Z,9.37
2023-03-15T17:10:31.402Z,9.27
2023-03-15T17:13:02.845Z,9.10
2023-03-15T17:15:32.459Z,8.97
2023-03-15T17:18:03.408Z,8.93
2023-03-15T17:20:34.750Z,8.92
2023-03-15T17:23:04.804Z,8.88
2023-03-15T17:25:34.138Z,8.81
2023-03-15T17:28:05.015Z,8.77
2023-03-15T17:30:35.329Z,8.68
2023-03-15T17:33:05.281Z,8.58
2023-03-15T17:35:44.017Z,8.49
2023-03-15T17:38:18.076Z,8.41
2023-03-15T17:40:48.885Z,8.40
2023-03-15T17:43:18.034Z,8.43
2023-03-15T17:45:48.062Z,8.42
2023-03-15T17:48:17.047Z,8.38
2023-03-15T17:50:47.163Z,8.32
2023-03-15T17:53:19.028Z,8.25
2023-03-15T17:55:48.222Z,8.19
2023-03-15T17:58:24.125Z,8.09
2023-03-15T18:00:54.961Z,8.01
2023-03-15T18:03:23.313Z,8.01
2023-03-15T18:05:52.208Z,7.95
2023-03-15T18:08:34.709Z,7.89
2023-03-15T18:11:04.237Z,7.89
2023-03-15T18:13:33.616Z,7.88
2023-03-15T18:16:14.734Z,7.83
2023-03-15T18:18:43.318Z,7.80
2023-03-15T18:21:14.527Z,7.74
2023-03-15T18:23:47.720Z,7.74
2023-03-15T18:26:16.409Z,7.67
2023-03-15T18:28:45.091Z,7.61
2023-03-15T18:31:20.881Z,7.58
2023-03-15T18:33:49.623Z,7.55
2023-03-15T18:36:19.251Z,7.51
2023-03-15T18:38:49.003Z,7.44
2023-03-15T18:41:20.845Z,7.42
2023-03-15T18:43:50.413Z,7.47
2023-03-15T18:46:22.919Z,7.48
2023-03-15T18:48:54.369Z,7.46
2023-03-15T18:51:28.355Z,7.40
2023-03-15T18:53:56.942Z,7.34
2023-03-15T18:56:28.398Z,7.31
2023-03-15T18:58:56.981Z,7.26
2023-03-15T19:01:26.536Z,7.28
2023-03-15T19:03:55.887Z,7.32
2023-03-15T19:06:31.357Z,7.29
2023-03-15T19:09:00.226Z,7.26
2023-03-15T19:11:31.891Z,7.26
2023-03-15T19:14:03.540Z,7.22
2023-03-15T19:16:32.966Z,7.19
2023-03-15T19:19:01.630Z,7.19
2023-03-15T19:21:32.469Z,7.24
2023-03-15T19:24:01.154Z,7.25
2023-03-15T19:26:30.457Z,7.23
2023-03-15T19:28:59.651Z,7.19
2023-03-15T19:31:28.089Z,7.13
2023-03-15T19:33:59.499Z,7.05
2023-03-15T19:36:28.080Z,7.04
2023-03-15T19:38:57.678Z,7.11
2023-03-15T19:41:27.287Z,7.13
2023-03-15T19:43:56.383Z,7.05
2023-03-15T19:46:27.783Z,6.98
2023-03-15T19:48:56.317Z,6.96
2023-03-15T19:51:25.131Z,6.95
2023-03-15T19:53:55.943Z,6.93
2023-03-15T19:56:24.325Z,6.98
2023-03-15T19:58:57.346Z,7.03
2023-03-15T20:01:26.048Z,7.05
2023-03-15T20:03:54.564Z,7.06
2023-03-15T20:06:23.370Z,7.07
2023-03-15T20:08:52.170Z,7.08
2023-03-15T20:11:25.391Z,7.07
2023-03-15T20:13:54.041Z,7.02
2023-03-15T20:16:22.592Z,7.05
2023-03-15T20:18:56.143Z,7.09
2023-03-15T20:21:24.721Z,7.10
2023-03-15T20:23:53.196Z,7.12
2023-03-15T20:26:24.134Z,7.13
2023-03-15T20:28:52.921Z,7.13
2023-03-15T20:31:23.722Z,7.10
2023-03-15T20:33:53.677Z,7.05
2023-03-15T20:36:22.671Z,6.95
2023-03-15T20:38:51.051Z,6.91
2023-03-15T20:41:23.838Z,6.98
2023-03-15T20:43:52.522Z,6.97
2023-03-15T20:46:22.721Z,6.95
2023-03-15T20:48:53.186Z,6.96
2023-03-15T20:51:22.181Z,6.95
2023-03-15T20:53:51.259Z,6.93
2023-03-15T20:56:20.049Z,6.90
2023-03-15T20:58:48.959Z,6.86
2023-03-15T21:01:22.547Z,6.85
2023-03-15T21:03:54.800Z,6.88
2023-03-15T21:06:23.702Z,6.90
2023-03-15T21:08:53.108Z,6.89
2023-03-15T21:11:21.897Z,6.89
2023-03-15T21:13:50.478Z,6.87
2023-03-15T21:16:21.437Z,6.85
2023-03-15T21:18:52.665Z,6.82
2023-03-15T21:21:24.942Z,6.76
2023-03-15T21:23:54.642Z,6.67
2023-03-15T21:26:23.330Z,6.65
2023-03-15T21:28:57.631Z,6.61
2023-03-15T21:31:26.262Z,6.52
2023-03-15T21:33:56.454Z,6.46
2023-03-15T21:36:24.832Z,6.38
2023-03-15T21:38:53.209Z,6.32
2023-03-15T21:41:22.944Z,6.25
2023-03-15T21:43:51.723Z,6.26
2023-03-15T21:46:20.261Z,6.28
2023-03-15T21:48:48.962Z,6.28
2023-03-15T21:51:17.664Z,6.27
2023-03-15T21:53:51.779Z,6.24
2023-03-15T21:56:20.159Z,6.21
2023-03-15T21:58:48.549Z,6.17
2023-03-15T22:01:17.384Z,6.10
2023-03-15T22:03:46.636Z,6.11
2023-03-15T22:06:16.961Z,6.15
2023-03-15T22:08:45.650Z,6.11
2023-03-15T22:11:14.126Z,6.04
2023-03-15T22:13:43.224Z,5.97
2023-03-15T22:16:12.320Z,5.90
2023-03-15T22:18:41.114Z,5.85
2023-03-15T22:21:11.579Z,5.87
2023-03-15T22:23:41.043Z,5.94
2023-03-15T22:26:11.265Z,5.92
2023-03-15T22:28:41.703Z,5.84
2023-03-15T22:31:11.478Z,5.79
2023-03-15T22:33:40.929Z,5.76
2023-03-15T22:36:11.147Z,5.69
2023-03-15T22:38:39.832Z,5.68
2023-03-15T22:41:10.466Z,5.72
2023-03-15T22:43:39.211Z,5.70
2023-03-15T22:46:09.306Z,5.58
2023-03-15T22:48:38.168Z,5.48
2023-03-15T22:51:10.129Z,5.44
2023-03-15T22:53:39.128Z,5.42
2023-03-15T22:56:07.717Z,5.45
2023-03-15T22:58:36.811Z,5.51
2023-03-15T23:01:06.968Z,5.55
2023-03-15T23:03:37.682Z,5.54
2023-03-15T23:06:06.770Z,5.53
2023-03-15T23:08:35.556Z,5.55
2023-03-15T23:11:04.348Z,5.57
2023-03-15T23:13:32.931Z,5.63
2023-03-15T23:16:04.457Z,5.66
2023-03-15T23:18:34.505Z,5.64
2023-03-15T23:21:11.913Z,5.65
2023-03-15T23:23:43.348Z,5.65
2023-03-15T23:26:13.166Z,5.64
2023-03-15T23:28:44.006Z,5.62
2023-03-15T23:31:12.649Z,5.58
2023-03-15T23:33:41.172Z,5.55
2023-03-15T23:36:09.669Z,5.48
2023-03-15T23:38:38.252Z,5.46
2023-03-15T23:41:09.392Z,5.49
2023-03-15T23:43:38.701Z,5.42
2023-03-15T23:46:07.520Z,5.36
2023-03-15T23:48:37.405Z,5.34
2023-03-15T23:51:08.817Z,5.35
2023-03-15T23:53:42.052Z,5.34
2023-03-15T23:56:11.247Z,5.34
2023-03-15T23:58:39.626Z,5.32
